SWG0227 CYVR-CYLW
Flight info
| Callsign | SWG0227 |
|---|---|
| Flight time | 0h 36m |
| Altitude | 23000 |
| Route | YVR4/26L JANEK DCT SEKAB SEKAB5 |
| Aircraft | B738/M-SDE2E3FGHIRWXY/LB1 |
Departure
| Time | 2026-05-03 20:41 |
|---|---|
| Airport | Vancouver International Airport (CYVR) |
Arrival
| Time | 2026-05-03 21:17 |
|---|---|
| Airport | Kelowna International Airport (CYLW) |
| Time | Latitude | Longitude | Altitude | Speed | Heading |
|---|---|---|---|---|---|
| 2026-05-03 20:15 | 49.19286 | -123.18368 | 18 ft | 0 kts | 162° |
| 2026-05-03 20:17 | 49.19287 | -123.18368 | 18 ft | 0 kts | 162° |
| 2026-05-03 20:32 | 49.19302 | -123.18375 | 18 ft | 2 kts | 161° |
| 2026-05-03 20:32 | 49.19320 | -123.18384 | 18 ft | 2 kts | 180° |
| 2026-05-03 20:32 | 49.19338 | -123.18374 | 18 ft | 2 kts | 223° |
| 2026-05-03 20:33 | 49.19345 | -123.18359 | 18 ft | 1 kts | 251° |
| 2026-05-03 20:33 | 49.19347 | -123.18349 | 18 ft | 0 kts | 253° |
| 2026-05-03 20:35 | 49.19342 | -123.18373 | 18 ft | 7 kts | 254° |
| 2026-05-03 20:35 | 49.19344 | -123.18484 | 18 ft | 10 kts | 282° |
| 2026-05-03 20:36 | 49.19381 | -123.18584 | 16 ft | 10 kts | 319° |
| 2026-05-03 20:36 | 49.19385 | -123.18687 | 15 ft | 12 kts | 209° |
| 2026-05-03 20:36 | 49.19289 | -123.18713 | 16 ft | 17 kts | 191° |
| 2026-05-03 20:36 | 49.19175 | -123.18712 | 17 ft | 15 kts | 148° |
| 2026-05-03 20:37 | 49.19064 | -123.18577 | 18 ft | 25 kts | 142° |
| 2026-05-03 20:37 | 49.18948 | -123.18384 | 18 ft | 18 kts | 102° |
| 2026-05-03 20:37 | 49.18919 | -123.18127 | 18 ft | 28 kts | 101° |
| 2026-05-03 20:37 | 49.18878 | -123.17753 | 15 ft | 32 kts | 99° |
| 2026-05-03 20:38 | 49.18835 | -123.17385 | 15 ft | 32 kts | 99° |
| 2026-05-03 20:38 | 49.18791 | -123.17001 | 15 ft | 32 kts | 99° |
| 2026-05-03 20:38 | 49.18750 | -123.16637 | 15 ft | 31 kts | 100° |
| 2026-05-03 20:38 | 49.18708 | -123.16317 | 14 ft | 17 kts | 115° |
| 2026-05-03 20:39 | 49.18658 | -123.16229 | 15 ft | 8 kts | 136° |
| 2026-05-03 20:39 | 49.18628 | -123.16110 | 14 ft | 11 kts | 100° |
| 2026-05-03 20:39 | 49.18572 | -123.16032 | 14 ft | 10 kts | 193° |
| 2026-05-03 20:39 | 49.18505 | -123.16055 | 15 ft | 7 kts | 199° |
| 2026-05-03 20:40 | 49.18478 | -123.16130 | 15 ft | 8 kts | 281° |
| 2026-05-03 20:40 | 49.18488 | -123.16214 | 15 ft | 7 kts | 281° |
| 2026-05-03 20:40 | 49.18494 | -123.16258 | 15 ft | 2 kts | 281° |
| 2026-05-03 20:40 | 49.18541 | -123.16657 | 15 ft | 82 kts | 280° |
| 2026-05-03 20:41 | 49.18709 | -123.18120 | 19 ft | 166 kts | 282° |
| 2026-05-03 20:41 | 49.18905 | -123.20013 | 709 ft | 183 kts | 279° |
| 2026-05-03 20:41 | 49.19094 | -123.22013 | 1472 ft | 184 kts | 280° |
| 2026-05-03 20:41 | 49.19315 | -123.24234 | 1826 ft | 204 kts | 280° |
| 2026-05-03 20:42 | 49.19553 | -123.26681 | 2293 ft | 218 kts | 280° |
| 2026-05-03 20:42 | 49.19790 | -123.29140 | 2675 ft | 233 kts | 280° |
| 2026-05-03 20:42 | 49.20064 | -123.31966 | 3159 ft | 249 kts | 279° |
| 2026-05-03 20:42 | 49.20328 | -123.34699 | 3639 ft | 262 kts | 280° |
| 2026-05-03 20:43 | 49.20630 | -123.37818 | 4250 ft | 270 kts | 279° |
| 2026-05-03 20:43 | 49.20940 | -123.41022 | 4944 ft | 275 kts | 279° |
| 2026-05-03 20:43 | 49.21256 | -123.44270 | 5744 ft | 278 kts | 279° |
| 2026-05-03 20:43 | 49.21581 | -123.47609 | 6487 ft | 282 kts | 279° |
| 2026-05-03 20:44 | 49.21903 | -123.50890 | 7255 ft | 285 kts | 279° |
| 2026-05-03 20:44 | 49.22295 | -123.54154 | 8004 ft | 288 kts | 290° |
| 2026-05-03 20:44 | 49.23387 | -123.57014 | 8768 ft | 288 kts | 317° |
| 2026-05-03 20:44 | 49.25307 | -123.58789 | 9521 ft | 287 kts | 347° |
| 2026-05-03 20:45 | 49.27508 | -123.59107 | 10384 ft | 286 kts | 3° |
| 2026-05-03 20:45 | 49.29724 | -123.58933 | 10829 ft | 302 kts | 5° |
| 2026-05-03 20:45 | 49.31959 | -123.58682 | 11307 ft | 315 kts | 6° |
| 2026-05-03 20:45 | 49.34386 | -123.57832 | 11800 ft | 331 kts | 27° |
| 2026-05-03 20:46 | 49.36345 | -123.55212 | 12274 ft | 346 kts | 56° |
| 2026-05-03 20:46 | 49.37299 | -123.51435 | 12680 ft | 363 kts | 78° |
| 2026-05-03 20:46 | 49.37673 | -123.47127 | 13340 ft | 374 kts | 82° |
| 2026-05-03 20:46 | 49.38172 | -123.42678 | 14129 ft | 377 kts | 75° |
| 2026-05-03 20:47 | 49.39089 | -123.38113 | 15046 ft | 380 kts | 68° |
| 2026-05-03 20:47 | 49.40247 | -123.33898 | 15789 ft | 386 kts | 64° |
| 2026-05-03 20:47 | 49.41544 | -123.29778 | 15914 ft | 387 kts | 62° |
| 2026-05-03 20:47 | 49.42991 | -123.25427 | 16074 ft | 394 kts | 62° |
| 2026-05-03 20:48 | 49.44361 | -123.21343 | 17215 ft | 389 kts | 61° |
| 2026-05-03 20:48 | 49.45726 | -123.17243 | 17894 ft | 394 kts | 61° |
| 2026-05-03 20:48 | 49.47095 | -123.13094 | 18661 ft | 398 kts | 62° |
| 2026-05-03 20:48 | 49.48480 | -123.08866 | 19406 ft | 402 kts | 62° |
| 2026-05-03 20:49 | 49.49871 | -123.04598 | 20165 ft | 405 kts | 62° |
| 2026-05-03 20:49 | 49.51294 | -123.00214 | 20824 ft | 410 kts | 62° |
| 2026-05-03 20:49 | 49.52720 | -122.95807 | 21546 ft | 414 kts | 62° |
| 2026-05-03 20:49 | 49.54187 | -122.91261 | 22289 ft | 417 kts | 62° |
| 2026-05-03 20:50 | 49.55603 | -122.86872 | 22939 ft | 420 kts | 61° |
| 2026-05-03 20:50 | 49.57071 | -122.82318 | 23073 ft | 424 kts | 61° |
| 2026-05-03 20:50 | 49.58514 | -122.77827 | 23063 ft | 421 kts | 61° |
| 2026-05-03 20:50 | 49.59958 | -122.73329 | 23058 ft | 421 kts | 61° |
| 2026-05-03 20:51 | 49.61297 | -122.69147 | 23056 ft | 422 kts | 61° |
| 2026-05-03 20:51 | 49.62719 | -122.64695 | 23049 ft | 422 kts | 61° |
| 2026-05-03 20:51 | 49.64128 | -122.60278 | 23051 ft | 423 kts | 61° |
| 2026-05-03 20:51 | 49.65547 | -122.55831 | 23060 ft | 424 kts | 61° |
| 2026-05-03 20:52 | 49.67037 | -122.51399 | 23059 ft | 423 kts | 58° |
| 2026-05-03 20:52 | 49.68848 | -122.46960 | 23058 ft | 420 kts | 52° |
| 2026-05-03 20:52 | 49.70649 | -122.43239 | 23055 ft | 421 kts | 50° |
| 2026-05-03 20:52 | 49.72694 | -122.39316 | 23042 ft | 420 kts | 48° |
| 2026-05-03 20:53 | 49.74859 | -122.35277 | 23033 ft | 422 kts | 48° |
| 2026-05-03 20:53 | 49.76781 | -122.31698 | 23017 ft | 421 kts | 49° |
| 2026-05-03 20:53 | 49.78659 | -122.28183 | 23014 ft | 422 kts | 49° |
| 2026-05-03 20:53 | 49.80583 | -122.24562 | 23026 ft | 423 kts | 49° |
| 2026-05-03 20:54 | 49.82556 | -122.20828 | 23040 ft | 422 kts | 49° |
| 2026-05-03 20:54 | 49.86672 | -122.12981 | 23067 ft | 423 kts | 49° |
| 2026-05-03 20:54 | 49.88693 | -122.09103 | 23073 ft | 422 kts | 49° |
| 2026-05-03 20:55 | 49.90722 | -122.05203 | 23077 ft | 423 kts | 49° |
| 2026-05-03 20:55 | 49.92805 | -122.01189 | 23068 ft | 421 kts | 49° |
| 2026-05-03 20:55 | 49.94951 | -121.97049 | 23067 ft | 422 kts | 49° |
| 2026-05-03 20:55 | 49.97006 | -121.93076 | 23059 ft | 422 kts | 49° |
| 2026-05-03 20:56 | 49.98936 | -121.89339 | 23051 ft | 424 kts | 49° |
| 2026-05-03 20:56 | 50.00953 | -121.85429 | 23046 ft | 424 kts | 49° |
| 2026-05-03 20:56 | 50.02995 | -121.81465 | 23047 ft | 425 kts | 49° |
| 2026-05-03 20:56 | 50.05111 | -121.77264 | 23061 ft | 425 kts | 52° |
| 2026-05-03 20:57 | 50.06901 | -121.72814 | 23066 ft | 427 kts | 60° |
| 2026-05-03 20:57 | 50.08109 | -121.67820 | 23069 ft | 429 kts | 72° |
| 2026-05-03 20:57 | 50.08673 | -121.62681 | 23070 ft | 434 kts | 82° |
| 2026-05-03 20:57 | 50.08874 | -121.57336 | 23050 ft | 435 kts | 85° |
| 2026-05-03 20:58 | 50.08914 | -121.51874 | 23026 ft | 434 kts | 87° |
| 2026-05-03 20:58 | 50.08898 | -121.46621 | 23019 ft | 434 kts | 87° |
| 2026-05-03 20:58 | 50.08869 | -121.41468 | 23055 ft | 435 kts | 87° |
| 2026-05-03 20:58 | 50.08837 | -121.36017 | 23075 ft | 435 kts | 88° |
| 2026-05-03 20:59 | 50.08810 | -121.31020 | 23094 ft | 435 kts | 88° |
| 2026-05-03 20:59 | 50.08786 | -121.26058 | 23112 ft | 435 kts | 88° |
| 2026-05-03 20:59 | 50.08759 | -121.20722 | 23108 ft | 435 kts | 88° |
| 2026-05-03 20:59 | 50.08735 | -121.15397 | 23100 ft | 435 kts | 88° |
| 2026-05-03 21:00 | 50.08712 | -121.10151 | 23092 ft | 434 kts | 88° |
| 2026-05-03 21:00 | 50.08697 | -121.06826 | 23090 ft | 434 kts | 88° |
| 2026-05-03 21:00 | 50.08663 | -120.99725 | 23071 ft | 435 kts | 88° |
| 2026-05-03 21:00 | 50.08633 | -120.94327 | 23067 ft | 435 kts | 88° |
| 2026-05-03 21:01 | 50.08601 | -120.88918 | 23071 ft | 433 kts | 88° |
| 2026-05-03 21:01 | 50.08565 | -120.83503 | 23065 ft | 417 kts | 88° |
| 2026-05-03 21:01 | 50.08529 | -120.78737 | 22843 ft | 405 kts | 88° |
| 2026-05-03 21:01 | 50.08494 | -120.73884 | 21885 ft | 411 kts | 88° |
| 2026-05-03 21:02 | 50.08458 | -120.69054 | 21212 ft | 408 kts | 88° |
| 2026-05-03 21:02 | 50.08420 | -120.64191 | 20678 ft | 401 kts | 88° |
| 2026-05-03 21:02 | 50.08380 | -120.59201 | 19796 ft | 404 kts | 88° |
| 2026-05-03 21:02 | 50.08339 | -120.54185 | 19151 ft | 399 kts | 88° |
| 2026-05-03 21:03 | 50.08295 | -120.49393 | 18509 ft | 395 kts | 88° |
| 2026-05-03 21:03 | 50.08249 | -120.44598 | 17906 ft | 391 kts | 88° |
| 2026-05-03 21:03 | 50.08200 | -120.39777 | 17250 ft | 388 kts | 88° |
| 2026-05-03 21:03 | 50.08153 | -120.35349 | 16692 ft | 384 kts | 88° |
| 2026-05-03 21:04 | 50.08107 | -120.31175 | 16127 ft | 381 kts | 89° |
| 2026-05-03 21:04 | 50.08061 | -120.27079 | 15564 ft | 378 kts | 88° |
| 2026-05-03 21:04 | 50.08011 | -120.22789 | 14978 ft | 375 kts | 89° |
| 2026-05-03 21:04 | 50.07962 | -120.18632 | 14287 ft | 372 kts | 89° |
| 2026-05-03 21:05 | 50.07905 | -120.14188 | 13431 ft | 364 kts | 89° |
| 2026-05-03 21:05 | 50.07850 | -120.09928 | 13195 ft | 365 kts | 88° |
| 2026-05-03 21:05 | 50.07795 | -120.05542 | 13119 ft | 365 kts | 88° |
| 2026-05-03 21:05 | 50.07735 | -120.00953 | 13118 ft | 366 kts | 88° |
| 2026-05-03 21:06 | 50.07674 | -119.96626 | 12925 ft | 354 kts | 88° |
| 2026-05-03 21:06 | 50.07613 | -119.92586 | 12541 ft | 336 kts | 88° |
| 2026-05-03 21:06 | 50.07554 | -119.88605 | 12084 ft | 321 kts | 88° |
| 2026-05-03 21:06 | 50.07501 | -119.85101 | 11725 ft | 308 kts | 88° |
| 2026-05-03 21:07 | 50.07451 | -119.81808 | 11433 ft | 294 kts | 88° |
| 2026-05-03 21:07 | 50.07404 | -119.78684 | 11230 ft | 281 kts | 88° |
| 2026-05-03 21:07 | 50.07223 | -119.75421 | 11075 ft | 274 kts | 99° |
| 2026-05-03 21:07 | 50.06476 | -119.72733 | 10928 ft | 270 kts | 129° |
| 2026-05-03 21:08 | 50.04961 | -119.71013 | 10698 ft | 267 kts | 159° |
| 2026-05-03 21:08 | 50.03157 | -119.70234 | 10355 ft | 266 kts | 167° |
| 2026-05-03 21:08 | 50.01261 | -119.69576 | 10033 ft | 265 kts | 167° |
| 2026-05-03 21:08 | 49.99459 | -119.68908 | 9745 ft | 263 kts | 166° |
| 2026-05-03 21:09 | 49.97702 | -119.68220 | 9577 ft | 254 kts | 165° |
| 2026-05-03 21:09 | 49.96009 | -119.67600 | 9453 ft | 243 kts | 168° |
| 2026-05-03 21:09 | 49.94373 | -119.67133 | 9275 ft | 235 kts | 171° |
| 2026-05-03 21:09 | 49.92771 | -119.66745 | 9095 ft | 227 kts | 172° |
| 2026-05-03 21:10 | 49.91241 | -119.66383 | 8821 ft | 225 kts | 172° |
| 2026-05-03 21:10 | 49.89656 | -119.65998 | 8590 ft | 223 kts | 171° |
| 2026-05-03 21:10 | 49.88104 | -119.65614 | 8351 ft | 226 kts | 171° |
| 2026-05-03 21:10 | 49.87085 | -119.65359 | 8174 ft | 225 kts | 171° |
| 2026-05-03 21:11 | 49.85056 | -119.64851 | 8059 ft | 211 kts | 171° |
| 2026-05-03 21:11 | 49.83556 | -119.64478 | 8067 ft | 211 kts | 171° |
| 2026-05-03 21:11 | 49.82077 | -119.64039 | 7916 ft | 213 kts | 163° |
| 2026-05-03 21:11 | 49.80770 | -119.63062 | 7684 ft | 209 kts | 139° |
| 2026-05-03 21:12 | 49.79760 | -119.61440 | 7451 ft | 207 kts | 123° |
| 2026-05-03 21:12 | 49.79024 | -119.59538 | 7221 ft | 202 kts | 109° |
| 2026-05-03 21:12 | 49.78695 | -119.57454 | 6985 ft | 198 kts | 88° |
| 2026-05-03 21:12 | 49.78784 | -119.55276 | 6754 ft | 194 kts | 76° |
| 2026-05-03 21:13 | 49.79215 | -119.53121 | 6464 ft | 192 kts | 58° |
| 2026-05-03 21:13 | 49.80118 | -119.51291 | 6085 ft | 188 kts | 40° |
| 2026-05-03 21:13 | 49.81173 | -119.49727 | 5745 ft | 186 kts | 40° |
| 2026-05-03 21:13 | 49.82213 | -119.48123 | 5461 ft | 184 kts | 41° |
| 2026-05-03 21:14 | 49.83187 | -119.46526 | 5189 ft | 179 kts | 47° |
| 2026-05-03 21:14 | 49.83894 | -119.44720 | 4834 ft | 182 kts | 64° |
| 2026-05-03 21:14 | 49.84306 | -119.42601 | 4536 ft | 179 kts | 70° |
| 2026-05-03 21:14 | 49.84900 | -119.40616 | 4228 ft | 172 kts | 51° |
| 2026-05-03 21:15 | 49.85753 | -119.39063 | 3907 ft | 169 kts | 41° |
| 2026-05-03 21:15 | 49.86763 | -119.37756 | 3566 ft | 159 kts | 28° |
| 2026-05-03 21:15 | 49.87930 | -119.37058 | 3306 ft | 157 kts | 10° |
| 2026-05-03 21:15 | 49.89156 | -119.36897 | 3121 ft | 158 kts | 355° |
| 2026-05-03 21:16 | 49.90377 | -119.37073 | 2714 ft | 155 kts | 353° |
| 2026-05-03 21:16 | 49.91604 | -119.37257 | 2282 ft | 155 kts | 354° |
| 2026-05-03 21:16 | 49.92767 | -119.37405 | 1882 ft | 149 kts | 354° |
| 2026-05-03 21:16 | 49.93861 | -119.37552 | 1564 ft | 144 kts | 353° |
| 2026-05-03 21:17 | 49.94985 | -119.37691 | 1421 ft | 137 kts | 355° |
| 2026-05-03 21:17 | 49.95674 | -119.37787 | 1435 ft | 31 kts | 355° |
| 2026-05-03 21:17 | 49.95783 | -119.37819 | 1437 ft | 10 kts | 320° |
| 2026-05-03 21:17 | 49.95793 | -119.37916 | 1438 ft | 6 kts | 248° |
| 2026-05-03 21:18 | 49.95754 | -119.37937 | 1438 ft | 6 kts | 175° |
| 2026-05-03 21:18 | 49.95695 | -119.37928 | 1436 ft | 8 kts | 174° |
| 2026-05-03 21:18 | 49.95615 | -119.37920 | 1433 ft | 11 kts | 175° |
| 2026-05-03 21:18 | 49.95520 | -119.37905 | 1430 ft | 12 kts | 173° |
| 2026-05-03 21:19 | 49.95422 | -119.37892 | 1428 ft | 13 kts | 174° |
| 2026-05-03 21:19 | 49.95309 | -119.37876 | 1425 ft | 14 kts | 174° |
| 2026-05-03 21:19 | 49.95192 | -119.37860 | 1423 ft | 14 kts | 174° |
| 2026-05-03 21:19 | 49.95130 | -119.37898 | 1421 ft | 6 kts | 215° |
| 2026-05-03 21:20 | 49.95089 | -119.37916 | 1420 ft | 1 kts | 234° |
| 2026-05-03 21:20 | 49.95093 | -119.37942 | 1420 ft | 2 kts | 283° |
| 2026-05-03 21:20 | 49.95097 | -119.37968 | 1420 ft | 2 kts | 283° |
| 2026-05-03 21:20 | 49.95100 | -119.37990 | 1420 ft | 1 kts | 282° |
| 2026-05-03 21:21 | 49.95101 | -119.37998 | 1420 ft | 0 kts | 283° |